UAL557 KCHS-KDEN
Flight info
| Callsign | UAL557 |
|---|---|
| Flight time | 3h 12m |
| Altitude | 34000 |
| Route | STUNO1 IRQ HITMN BUM HYS J24 OATHE CLASH5 |
| Aircraft | B739/M-SDE2E3FGHIRWXY/LB1 |
Departure
| Time | 2026-04-24 16:49 |
|---|---|
| Airport | Charleston International Airport (KCHS) |
Arrival
| Time | 2026-04-24 20:02 |
|---|---|
| Airport | Denver International Airport (KDEN) |
| Time | Latitude | Longitude | Altitude | Speed | Heading |
|---|---|---|---|---|---|
| 2026-04-24 16:30 | 32.88572 | -80.03721 | 36 ft | 0 kts | 274° |
| 2026-04-24 16:42 | 32.88572 | -80.03718 | 36 ft | 2 kts | 275° |
| 2026-04-24 16:43 | 32.88569 | -80.03698 | 34 ft | 3 kts | 304° |
| 2026-04-24 16:43 | 32.88558 | -80.03686 | 34 ft | 3 kts | 358° |
| 2026-04-24 16:43 | 32.88543 | -80.03688 | 36 ft | 1 kts | 21° |
| 2026-04-24 16:43 | 32.88539 | -80.03690 | 36 ft | 0 kts | 21° |
| 2026-04-24 16:46 | 32.88540 | -80.03690 | 36 ft | 1 kts | 22° |
| 2026-04-24 16:46 | 32.88557 | -80.03682 | 36 ft | 6 kts | 19° |
| 2026-04-24 16:46 | 32.88619 | -80.03665 | 37 ft | 13 kts | 9° |
| 2026-04-24 16:47 | 32.88727 | -80.03646 | 37 ft | 18 kts | 7° |
| 2026-04-24 16:47 | 32.88855 | -80.03623 | 39 ft | 19 kts | 6° |
| 2026-04-24 16:47 | 32.88980 | -80.03601 | 43 ft | 18 kts | 20° |
| 2026-04-24 16:47 | 32.89069 | -80.03505 | 42 ft | 17 kts | 54° |
| 2026-04-24 16:48 | 32.89139 | -80.03394 | 45 ft | 17 kts | 54° |
| 2026-04-24 16:48 | 32.89200 | -80.03280 | 40 ft | 15 kts | 60° |
| 2026-04-24 16:48 | 32.89256 | -80.03262 | 42 ft | 10 kts | 332° |
| 2026-04-24 16:48 | 32.89366 | -80.03345 | 43 ft | 43 kts | 327° |
| 2026-04-24 16:49 | 32.89807 | -80.03682 | 51 ft | 106 kts | 327° |
| 2026-04-24 16:49 | 32.90588 | -80.04271 | 54 ft | 157 kts | 328° |
| 2026-04-24 16:49 | 32.91610 | -80.05027 | 288 ft | 178 kts | 330° |
| 2026-04-24 16:49 | 32.92608 | -80.05806 | 1058 ft | 171 kts | 319° |
| 2026-04-24 16:50 | 32.93095 | -80.06580 | 1199 ft | 186 kts | 286° |
| 2026-04-24 16:50 | 32.93090 | -80.08690 | 1877 ft | 200 kts | 269° |
| 2026-04-24 16:50 | 32.93070 | -80.10447 | 2106 ft | 225 kts | 271° |
| 2026-04-24 16:50 | 32.93093 | -80.12355 | 2551 ft | 234 kts | 271° |
| 2026-04-24 16:51 | 32.93121 | -80.14306 | 3142 ft | 239 kts | 270° |
| 2026-04-24 16:51 | 32.93150 | -80.16358 | 3588 ft | 255 kts | 270° |
| 2026-04-24 16:51 | 32.93182 | -80.18487 | 4243 ft | 260 kts | 271° |
| 2026-04-24 16:51 | 32.93214 | -80.20659 | 4973 ft | 264 kts | 271° |
| 2026-04-24 16:52 | 32.93258 | -80.22860 | 5700 ft | 268 kts | 271° |
| 2026-04-24 16:52 | 32.93306 | -80.25091 | 6419 ft | 271 kts | 271° |
| 2026-04-24 16:52 | 32.93358 | -80.27351 | 7133 ft | 274 kts | 271° |
| 2026-04-24 16:52 | 32.93411 | -80.29647 | 7779 ft | 280 kts | 271° |
| 2026-04-24 16:53 | 32.93461 | -80.31979 | 8437 ft | 284 kts | 271° |
| 2026-04-24 16:53 | 32.93511 | -80.34338 | 9119 ft | 286 kts | 271° |
| 2026-04-24 16:53 | 32.93558 | -80.36705 | 9726 ft | 290 kts | 271° |
| 2026-04-24 16:53 | 32.93608 | -80.39121 | 10355 ft | 295 kts | 271° |
| 2026-04-24 16:54 | 32.93661 | -80.41650 | 10536 ft | 316 kts | 271° |
| 2026-04-24 16:54 | 32.93717 | -80.44341 | 10716 ft | 335 kts | 271° |
| 2026-04-24 16:54 | 32.93777 | -80.47193 | 10862 ft | 354 kts | 271° |
| 2026-04-24 16:54 | 32.93844 | -80.50192 | 11043 ft | 370 kts | 272° |
| 2026-04-24 16:55 | 32.94053 | -80.53282 | 11502 ft | 376 kts | 275° |
| 2026-04-24 16:55 | 32.94364 | -80.56378 | 12145 ft | 376 kts | 276° |
| 2026-04-24 16:55 | 32.94690 | -80.59432 | 12746 ft | 378 kts | 276° |
| 2026-04-24 16:55 | 32.95015 | -80.62550 | 13271 ft | 381 kts | 276° |
| 2026-04-24 16:56 | 32.95330 | -80.65694 | 13804 ft | 384 kts | 276° |
| 2026-04-24 16:56 | 32.95636 | -80.68860 | 14329 ft | 387 kts | 276° |
| 2026-04-24 16:56 | 32.95939 | -80.72056 | 14836 ft | 389 kts | 276° |
| 2026-04-24 16:56 | 32.96240 | -80.75269 | 15344 ft | 392 kts | 276° |
| 2026-04-24 16:57 | 32.96541 | -80.78510 | 15841 ft | 395 kts | 276° |
| 2026-04-24 16:57 | 32.96844 | -80.81770 | 16305 ft | 397 kts | 276° |
| 2026-04-24 16:57 | 32.97149 | -80.85052 | 16750 ft | 400 kts | 276° |
| 2026-04-24 16:57 | 32.97497 | -80.88355 | 17183 ft | 404 kts | 281° |
| 2026-04-24 16:58 | 32.98495 | -80.91483 | 17585 ft | 408 kts | 300° |
| 2026-04-24 16:58 | 32.99988 | -80.94365 | 18041 ft | 410 kts | 301° |
| 2026-04-24 16:58 | 33.01494 | -80.97264 | 18445 ft | 413 kts | 301° |
| 2026-04-24 16:58 | 33.03002 | -81.00197 | 18848 ft | 415 kts | 300° |
| 2026-04-24 16:59 | 33.04504 | -81.03144 | 19250 ft | 417 kts | 300° |
| 2026-04-24 16:59 | 33.06007 | -81.06111 | 19621 ft | 419 kts | 300° |
| 2026-04-24 16:59 | 33.09008 | -81.12079 | 20343 ft | 424 kts | 300° |
| 2026-04-24 17:00 | 33.10530 | -81.15111 | 20716 ft | 427 kts | 300° |
| 2026-04-24 17:00 | 33.13588 | -81.21220 | 21346 ft | 432 kts | 300° |
| 2026-04-24 17:00 | 33.15134 | -81.24315 | 21652 ft | 435 kts | 300° |
| 2026-04-24 17:01 | 33.18239 | -81.30535 | 22324 ft | 438 kts | 300° |
| 2026-04-24 17:01 | 33.19804 | -81.33672 | 22629 ft | 440 kts | 300° |
| 2026-04-24 17:02 | 33.22957 | -81.39995 | 23155 ft | 445 kts | 300° |
| 2026-04-24 17:02 | 33.24544 | -81.43181 | 23456 ft | 447 kts | 300° |
| 2026-04-24 17:02 | 33.26135 | -81.46380 | 23701 ft | 449 kts | 300° |
| 2026-04-24 17:02 | 33.27734 | -81.49598 | 23951 ft | 451 kts | 300° |
| 2026-04-24 17:03 | 33.30944 | -81.56077 | 24462 ft | 454 kts | 300° |
| 2026-04-24 17:03 | 33.32554 | -81.59332 | 24721 ft | 455 kts | 300° |
| 2026-04-24 17:03 | 33.34171 | -81.62600 | 24959 ft | 457 kts | 300° |
| 2026-04-24 17:04 | 33.35774 | -81.65841 | 25191 ft | 459 kts | 300° |
| 2026-04-24 17:04 | 33.39034 | -81.72447 | 25662 ft | 462 kts | 300° |
| 2026-04-24 17:04 | 33.40673 | -81.75771 | 25895 ft | 464 kts | 300° |
| 2026-04-24 17:05 | 33.42314 | -81.79102 | 26125 ft | 465 kts | 300° |
| 2026-04-24 17:05 | 33.43978 | -81.82437 | 26348 ft | 467 kts | 302° |
| 2026-04-24 17:05 | 33.48278 | -81.88287 | 26792 ft | 471 kts | 314° |
| 2026-04-24 17:06 | 33.50603 | -81.91058 | 27075 ft | 470 kts | 314° |
| 2026-04-24 17:06 | 33.55194 | -81.96626 | 27682 ft | 469 kts | 313° |
| 2026-04-24 17:06 | 33.57461 | -81.99449 | 27988 ft | 468 kts | 313° |
| 2026-04-24 17:07 | 33.58949 | -82.01319 | 28209 ft | 467 kts | 313° |
| 2026-04-24 17:07 | 33.61909 | -82.05060 | 28671 ft | 465 kts | 313° |
| 2026-04-24 17:07 | 33.66356 | -82.10693 | 29299 ft | 465 kts | 313° |
| 2026-04-24 17:08 | 33.70795 | -82.16319 | 29974 ft | 462 kts | 311° |
| 2026-04-24 17:08 | 33.72798 | -82.19336 | 30284 ft | 461 kts | 305° |
| 2026-04-24 17:08 | 33.74629 | -82.22500 | 30599 ft | 459 kts | 303° |
| 2026-04-24 17:09 | 33.78121 | -82.28885 | 31382 ft | 454 kts | 302° |
| 2026-04-24 17:09 | 33.81594 | -82.35195 | 32067 ft | 451 kts | 303° |
| 2026-04-24 17:10 | 33.83348 | -82.38326 | 32372 ft | 450 kts | 303° |
| 2026-04-24 17:10 | 33.88583 | -82.47568 | 33290 ft | 444 kts | 303° |
| 2026-04-24 17:11 | 33.93793 | -82.56754 | 34039 ft | 439 kts | 303° |
| 2026-04-24 17:12 | 34.02441 | -82.72067 | 34037 ft | 443 kts | 303° |
| 2026-04-24 18:54 | 38.58160 | -96.84796 | 33933 ft | 409 kts | 273° |
| 2026-04-24 18:55 | 38.59452 | -96.95568 | 33935 ft | 408 kts | 273° |
| 2026-04-24 18:56 | 38.60307 | -97.02740 | 33945 ft | 408 kts | 273° |
| 2026-04-24 18:56 | 38.61158 | -97.09915 | 33935 ft | 408 kts | 273° |
| 2026-04-24 18:57 | 38.62004 | -97.17078 | 33952 ft | 407 kts | 273° |
| 2026-04-24 18:57 | 38.62845 | -97.24240 | 33939 ft | 407 kts | 273° |
| 2026-04-24 18:58 | 38.63681 | -97.31393 | 33950 ft | 406 kts | 273° |
| 2026-04-24 18:58 | 38.64510 | -97.38550 | 33950 ft | 406 kts | 273° |
| 2026-04-24 18:59 | 38.65333 | -97.45687 | 33944 ft | 405 kts | 273° |
| 2026-04-24 18:59 | 38.66146 | -97.52770 | 33941 ft | 404 kts | 273° |
| 2026-04-24 19:00 | 38.66958 | -97.59883 | 33951 ft | 404 kts | 273° |
| 2026-04-24 19:00 | 38.67765 | -97.66985 | 33957 ft | 403 kts | 273° |
| 2026-04-24 19:01 | 38.68566 | -97.74087 | 33949 ft | 403 kts | 273° |
| 2026-04-24 19:01 | 38.69363 | -97.81187 | 33955 ft | 402 kts | 273° |
| 2026-04-24 19:02 | 38.70019 | -97.87072 | 33961 ft | 402 kts | 273° |
| 2026-04-24 19:02 | 38.70940 | -97.95357 | 33949 ft | 402 kts | 273° |
| 2026-04-24 19:03 | 38.71722 | -98.02434 | 33950 ft | 402 kts | 274° |
| 2026-04-24 19:03 | 38.72500 | -98.09524 | 33964 ft | 402 kts | 274° |
| 2026-04-24 19:04 | 38.73274 | -98.16618 | 33964 ft | 402 kts | 273° |
| 2026-04-24 19:04 | 38.73915 | -98.22519 | 33968 ft | 402 kts | 273° |
| 2026-04-24 19:05 | 38.74805 | -98.30761 | 33969 ft | 402 kts | 273° |
| 2026-04-24 19:05 | 38.75442 | -98.36709 | 33974 ft | 402 kts | 273° |
| 2026-04-24 19:06 | 38.76194 | -98.43757 | 33968 ft | 402 kts | 274° |
| 2026-04-24 19:06 | 38.76950 | -98.50869 | 33967 ft | 402 kts | 274° |
| 2026-04-24 19:07 | 38.77699 | -98.57980 | 33950 ft | 403 kts | 274° |
| 2026-04-24 19:07 | 38.78447 | -98.65109 | 33935 ft | 403 kts | 273° |
| 2026-04-24 19:08 | 38.79189 | -98.72241 | 33940 ft | 403 kts | 273° |
| 2026-04-24 19:08 | 38.79922 | -98.79324 | 33939 ft | 403 kts | 274° |
| 2026-04-24 19:09 | 38.80655 | -98.86458 | 33928 ft | 403 kts | 274° |
| 2026-04-24 19:09 | 38.81383 | -98.93587 | 33936 ft | 403 kts | 274° |
| 2026-04-24 19:10 | 38.82107 | -99.00709 | 33936 ft | 403 kts | 273° |
| 2026-04-24 19:10 | 38.82826 | -99.07836 | 33936 ft | 403 kts | 274° |
| 2026-04-24 19:11 | 38.83541 | -99.14970 | 33957 ft | 403 kts | 274° |
| 2026-04-24 19:11 | 38.84250 | -99.22095 | 33958 ft | 403 kts | 274° |
| 2026-04-24 19:12 | 38.84886 | -99.29230 | 33955 ft | 401 kts | 269° |
| 2026-04-24 19:12 | 38.84989 | -99.36321 | 33949 ft | 400 kts | 268° |
| 2026-04-24 19:13 | 38.85018 | -99.42308 | 33955 ft | 400 kts | 268° |
| 2026-04-24 19:13 | 38.85069 | -99.50619 | 33955 ft | 400 kts | 268° |
| 2026-04-24 19:14 | 38.85128 | -99.57776 | 33952 ft | 401 kts | 268° |
| 2026-04-24 19:14 | 38.85186 | -99.64929 | 33959 ft | 401 kts | 268° |
| 2026-04-24 19:15 | 38.85244 | -99.72085 | 33948 ft | 401 kts | 268° |
| 2026-04-24 19:15 | 38.85298 | -99.79247 | 33953 ft | 401 kts | 268° |
| 2026-04-24 19:16 | 38.85369 | -99.89947 | 33959 ft | 401 kts | 268° |
| 2026-04-24 19:16 | 38.85412 | -99.97107 | 33956 ft | 401 kts | 268° |
| 2026-04-24 19:17 | 38.85450 | -100.04263 | 33946 ft | 401 kts | 268° |
| 2026-04-24 19:17 | 38.85484 | -100.11417 | 33952 ft | 401 kts | 268° |
| 2026-04-24 19:18 | 38.85513 | -100.18572 | 33947 ft | 401 kts | 268° |
| 2026-04-24 19:18 | 38.85537 | -100.25739 | 33961 ft | 401 kts | 268° |
| 2026-04-24 19:19 | 38.85558 | -100.32864 | 33955 ft | 402 kts | 268° |
| 2026-04-24 19:19 | 38.85575 | -100.40025 | 33956 ft | 402 kts | 268° |
| 2026-04-24 19:20 | 38.85586 | -100.47201 | 33943 ft | 402 kts | 268° |
| 2026-04-24 19:20 | 38.85591 | -100.54375 | 33942 ft | 401 kts | 268° |
| 2026-04-24 19:21 | 38.85595 | -100.61543 | 33944 ft | 402 kts | 268° |
| 2026-04-24 19:21 | 38.85595 | -100.68716 | 33945 ft | 402 kts | 268° |
| 2026-04-24 19:22 | 38.85589 | -100.75892 | 33944 ft | 402 kts | 268° |
| 2026-04-24 19:22 | 38.85579 | -100.83023 | 33947 ft | 402 kts | 268° |
| 2026-04-24 19:23 | 38.85564 | -100.90202 | 33938 ft | 403 kts | 268° |
| 2026-04-24 19:23 | 38.85543 | -100.97395 | 33943 ft | 403 kts | 268° |
| 2026-04-24 19:24 | 38.85521 | -101.04600 | 33937 ft | 403 kts | 268° |
| 2026-04-24 19:24 | 38.85493 | -101.11746 | 33932 ft | 402 kts | 268° |
| 2026-04-24 19:25 | 38.85460 | -101.18923 | 33937 ft | 402 kts | 268° |
| 2026-04-24 19:25 | 38.85423 | -101.26105 | 33935 ft | 402 kts | 268° |
| 2026-04-24 19:26 | 38.85382 | -101.33272 | 33926 ft | 402 kts | 268° |
| 2026-04-24 19:26 | 38.85337 | -101.40444 | 33925 ft | 402 kts | 268° |
| 2026-04-24 19:27 | 38.85287 | -101.47613 | 33915 ft | 402 kts | 268° |
| 2026-04-24 19:27 | 38.85231 | -101.54777 | 33919 ft | 402 kts | 268° |
| 2026-04-24 19:28 | 38.85171 | -101.61935 | 33918 ft | 401 kts | 268° |
| 2026-04-24 19:28 | 38.85106 | -101.69090 | 33915 ft | 401 kts | 268° |
| 2026-04-24 19:29 | 38.85002 | -101.79836 | 33906 ft | 401 kts | 268° |
| 2026-04-24 19:30 | 38.84930 | -101.86949 | 33906 ft | 401 kts | 268° |
| 2026-04-24 19:30 | 38.84852 | -101.94117 | 33908 ft | 401 kts | 268° |
| 2026-04-24 19:31 | 38.84769 | -102.01272 | 33901 ft | 401 kts | 268° |
| 2026-04-24 19:31 | 38.84679 | -102.08419 | 33898 ft | 400 kts | 268° |
| 2026-04-24 19:32 | 38.84581 | -102.15561 | 33898 ft | 400 kts | 268° |
| 2026-04-24 19:32 | 38.84486 | -102.22698 | 33894 ft | 399 kts | 268° |
| 2026-04-24 19:33 | 38.85223 | -102.29686 | 33916 ft | 401 kts | 284° |
| 2026-04-24 19:33 | 38.86810 | -102.36569 | 33901 ft | 401 kts | 283° |
| 2026-04-24 19:34 | 38.88331 | -102.43466 | 33895 ft | 401 kts | 283° |
| 2026-04-24 19:34 | 38.89829 | -102.50361 | 33879 ft | 402 kts | 283° |
| 2026-04-24 19:35 | 38.91317 | -102.57232 | 33885 ft | 402 kts | 283° |
| 2026-04-24 19:35 | 38.92815 | -102.64157 | 33892 ft | 402 kts | 283° |
| 2026-04-24 19:36 | 38.94308 | -102.71101 | 33888 ft | 403 kts | 283° |
| 2026-04-24 19:36 | 38.95797 | -102.78045 | 33888 ft | 403 kts | 283° |
| 2026-04-24 19:37 | 38.97282 | -102.84987 | 33892 ft | 403 kts | 283° |
| 2026-04-24 19:37 | 38.98759 | -102.91891 | 33893 ft | 403 kts | 283° |
| 2026-04-24 19:38 | 39.00247 | -102.98828 | 33882 ft | 402 kts | 283° |
| 2026-04-24 19:38 | 39.01727 | -103.05769 | 33583 ft | 407 kts | 283° |
| 2026-04-24 19:38 | 39.02479 | -103.09312 | 32918 ft | 411 kts | 283° |
| 2026-04-24 19:39 | 39.03233 | -103.12854 | 32110 ft | 410 kts | 283° |
| 2026-04-24 19:39 | 39.03985 | -103.16396 | 31325 ft | 410 kts | 283° |
| 2026-04-24 19:39 | 39.04930 | -103.19842 | 30763 ft | 409 kts | 295° |
| 2026-04-24 19:39 | 39.06427 | -103.22953 | 30196 ft | 407 kts | 299° |
| 2026-04-24 19:40 | 39.07938 | -103.26010 | 29604 ft | 402 kts | 298° |
| 2026-04-24 19:40 | 39.09410 | -103.29054 | 29038 ft | 398 kts | 298° |
| 2026-04-24 19:40 | 39.10852 | -103.32075 | 28443 ft | 395 kts | 298° |
| 2026-04-24 19:40 | 39.12279 | -103.35089 | 27883 ft | 391 kts | 298° |
| 2026-04-24 19:41 | 39.13668 | -103.38032 | 27325 ft | 388 kts | 298° |
| 2026-04-24 19:41 | 39.15065 | -103.40995 | 26765 ft | 385 kts | 298° |
| 2026-04-24 19:41 | 39.16447 | -103.43930 | 26210 ft | 382 kts | 298° |
| 2026-04-24 19:41 | 39.17822 | -103.46849 | 25654 ft | 380 kts | 298° |
| 2026-04-24 19:42 | 39.19189 | -103.49749 | 25105 ft | 377 kts | 298° |
| 2026-04-24 19:42 | 39.20546 | -103.52631 | 24553 ft | 375 kts | 298° |
| 2026-04-24 19:42 | 39.21898 | -103.55504 | 24002 ft | 374 kts | 298° |
| 2026-04-24 19:42 | 39.23242 | -103.58363 | 23469 ft | 372 kts | 298° |
| 2026-04-24 19:43 | 39.24577 | -103.61208 | 22940 ft | 370 kts | 298° |
| 2026-04-24 19:43 | 39.25905 | -103.64040 | 22414 ft | 368 kts | 298° |
| 2026-04-24 19:43 | 39.27224 | -103.66852 | 22042 ft | 361 kts | 298° |
| 2026-04-24 19:43 | 39.28503 | -103.69578 | 21891 ft | 350 kts | 298° |
| 2026-04-24 19:44 | 39.29798 | -103.72203 | 21623 ft | 344 kts | 301° |
| 2026-04-24 19:44 | 39.31155 | -103.74758 | 21377 ft | 348 kts | 302° |
| 2026-04-24 19:44 | 39.32561 | -103.77367 | 21121 ft | 357 kts | 302° |
| 2026-04-24 19:44 | 39.33988 | -103.80020 | 20842 ft | 360 kts | 302° |
| 2026-04-24 19:45 | 39.35406 | -103.82679 | 20570 ft | 358 kts | 301° |
| 2026-04-24 19:45 | 39.36793 | -103.85290 | 20297 ft | 355 kts | 301° |
| 2026-04-24 19:45 | 39.38180 | -103.87918 | 20011 ft | 353 kts | 301° |
| 2026-04-24 19:45 | 39.39555 | -103.90528 | 19742 ft | 350 kts | 301° |
| 2026-04-24 19:46 | 39.40916 | -103.93114 | 19486 ft | 344 kts | 301° |
| 2026-04-24 19:46 | 39.42245 | -103.95640 | 19223 ft | 336 kts | 301° |
| 2026-04-24 19:46 | 39.43545 | -103.98108 | 18969 ft | 328 kts | 301° |
| 2026-04-24 19:46 | 39.44824 | -104.00516 | 18734 ft | 321 kts | 303° |
| 2026-04-24 19:47 | 39.46144 | -104.02812 | 18505 ft | 314 kts | 304° |
| 2026-04-24 19:47 | 39.47451 | -104.05045 | 18277 ft | 307 kts | 304° |
| 2026-04-24 19:47 | 39.48728 | -104.07233 | 18060 ft | 302 kts | 303° |
| 2026-04-24 19:47 | 39.49984 | -104.09396 | 17847 ft | 299 kts | 303° |
| 2026-04-24 19:48 | 39.51239 | -104.11537 | 17632 ft | 297 kts | 304° |
| 2026-04-24 19:48 | 39.52470 | -104.13673 | 17421 ft | 297 kts | 303° |
| 2026-04-24 19:48 | 39.54952 | -104.18040 | 17000 ft | 304 kts | 303° |
| 2026-04-24 19:49 | 39.57523 | -104.22352 | 16494 ft | 305 kts | 305° |
| 2026-04-24 19:49 | 39.60167 | -104.26661 | 15968 ft | 305 kts | 305° |
| 2026-04-24 19:50 | 39.64130 | -104.33159 | 15188 ft | 306 kts | 305° |
| 2026-04-24 19:50 | 39.65005 | -104.34600 | 15011 ft | 306 kts | 305° |
| 2026-04-24 19:51 | 39.67635 | -104.38943 | 14481 ft | 305 kts | 305° |
| 2026-04-24 19:51 | 39.68950 | -104.41116 | 14236 ft | 305 kts | 304° |
| 2026-04-24 19:52 | 39.71535 | -104.45389 | 13859 ft | 300 kts | 305° |
| 2026-04-24 19:52 | 39.72882 | -104.47457 | 13617 ft | 302 kts | 316° |
| 2026-04-24 19:52 | 39.74718 | -104.48827 | 13368 ft | 308 kts | 338° |
| 2026-04-24 19:52 | 39.76788 | -104.49575 | 13117 ft | 310 kts | 343° |
| 2026-04-24 19:53 | 39.78890 | -104.50253 | 12858 ft | 312 kts | 343° |
| 2026-04-24 19:53 | 39.80965 | -104.50940 | 12602 ft | 312 kts | 342° |
| 2026-04-24 19:53 | 39.85184 | -104.52315 | 12032 ft | 311 kts | 350° |
| 2026-04-24 19:54 | 39.87338 | -104.52376 | 11781 ft | 309 kts | 0° |
| 2026-04-24 19:54 | 39.89472 | -104.52280 | 11521 ft | 304 kts | 0° |
| 2026-04-24 19:54 | 39.91577 | -104.52217 | 11258 ft | 300 kts | 359° |
| 2026-04-24 19:54 | 39.93652 | -104.52178 | 11024 ft | 295 kts | 358° |
| 2026-04-24 19:55 | 39.94983 | -104.52189 | 11081 ft | 283 kts | 358° |
| 2026-04-24 19:55 | 39.97508 | -104.52261 | 11067 ft | 260 kts | 356° |
| 2026-04-24 19:55 | 39.99263 | -104.52341 | 11035 ft | 246 kts | 355° |
| 2026-04-24 19:55 | 40.00966 | -104.52225 | 10956 ft | 245 kts | 14° |
| 2026-04-24 19:56 | 40.02643 | -104.51796 | 10617 ft | 246 kts | 352° |
| 2026-04-24 19:56 | 40.04191 | -104.52507 | 10276 ft | 233 kts | 319° |
| 2026-04-24 19:56 | 40.05210 | -104.54005 | 10031 ft | 216 kts | 292° |
| 2026-04-24 19:56 | 40.05579 | -104.55866 | 9444 ft | 215 kts | 262° |
| 2026-04-24 19:57 | 40.05115 | -104.57632 | 9091 ft | 203 kts | 232° |
| 2026-04-24 19:57 | 40.04137 | -104.58899 | 8936 ft | 190 kts | 221° |
| 2026-04-24 19:57 | 40.03138 | -104.60085 | 8673 ft | 194 kts | 221° |
| 2026-04-24 19:57 | 40.02145 | -104.61278 | 8451 ft | 195 kts | 221° |
| 2026-04-24 19:58 | 40.01154 | -104.62468 | 8282 ft | 193 kts | 221° |
| 2026-04-24 19:58 | 40.00170 | -104.63649 | 8076 ft | 191 kts | 221° |
| 2026-04-24 19:58 | 39.99189 | -104.64825 | 7876 ft | 191 kts | 221° |
| 2026-04-24 19:58 | 39.98205 | -104.65953 | 7650 ft | 182 kts | 210° |
| 2026-04-24 19:59 | 39.97051 | -104.66222 | 7422 ft | 169 kts | 167° |
| 2026-04-24 19:59 | 39.95846 | -104.65956 | 7018 ft | 180 kts | 176° |
| 2026-04-24 19:59 | 39.94603 | -104.65864 | 6767 ft | 182 kts | 178° |
| 2026-04-24 19:59 | 39.93340 | -104.65881 | 6557 ft | 182 kts | 182° |
| 2026-04-24 20:00 | 39.92088 | -104.65919 | 6407 ft | 177 kts | 180° |
| 2026-04-24 20:00 | 39.90870 | -104.65942 | 6259 ft | 174 kts | 181° |
| 2026-04-24 20:00 | 39.89653 | -104.65983 | 6099 ft | 176 kts | 179° |
| 2026-04-24 20:00 | 39.88420 | -104.65989 | 5895 ft | 179 kts | 179° |
| 2026-04-24 20:01 | 39.87179 | -104.65995 | 5661 ft | 177 kts | 180° |
| 2026-04-24 20:01 | 39.85958 | -104.66023 | 5413 ft | 172 kts | 180° |
| 2026-04-24 20:01 | 39.84843 | -104.66034 | 5404 ft | 141 kts | 180° |
| 2026-04-24 20:01 | 39.84020 | -104.66043 | 5417 ft | 96 kts | 181° |
| 2026-04-24 20:02 | 39.83728 | -104.66100 | 5419 ft | 50 kts | 202° |
| 2026-04-24 20:02 | 39.83641 | -104.66230 | 5420 ft | 8 kts | 305° |
| 2026-04-24 20:02 | 39.83707 | -104.66259 | 5417 ft | 14 kts | 358° |
| 2026-04-24 20:02 | 39.83825 | -104.66260 | 5424 ft | 19 kts | 0° |
| 2026-04-24 20:03 | 39.83971 | -104.66258 | 5422 ft | 23 kts | 1° |
| 2026-04-24 20:03 | 39.84144 | -104.66254 | 5416 ft | 25 kts | 0° |
| 2026-04-24 20:03 | 39.84311 | -104.66253 | 5416 ft | 23 kts | 360° |
| 2026-04-24 20:03 | 39.84470 | -104.66252 | 5408 ft | 22 kts | 0° |
| 2026-04-24 20:04 | 39.84624 | -104.66248 | 5414 ft | 22 kts | 2° |
| 2026-04-24 20:04 | 39.84774 | -104.66241 | 5408 ft | 21 kts | 360° |
| 2026-04-24 20:04 | 39.84921 | -104.66241 | 5401 ft | 22 kts | 2° |
| 2026-04-24 20:04 | 39.85078 | -104.66240 | 5399 ft | 24 kts | 360° |
| 2026-04-24 20:05 | 39.85254 | -104.66240 | 5398 ft | 25 kts | 1° |
| 2026-04-24 20:05 | 39.85423 | -104.66236 | 5395 ft | 23 kts | 359° |
| 2026-04-24 20:05 | 39.85583 | -104.66233 | 5393 ft | 21 kts | 1° |
| 2026-04-24 20:05 | 39.85678 | -104.66280 | 5384 ft | 14 kts | 277° |
| 2026-04-24 20:06 | 39.85679 | -104.66419 | 5386 ft | 17 kts | 270° |
| 2026-04-24 20:06 | 39.85664 | -104.66573 | 5386 ft | 17 kts | 259° |
| 2026-04-24 20:06 | 39.85660 | -104.66724 | 5385 ft | 16 kts | 270° |
| 2026-04-24 20:06 | 39.85660 | -104.66876 | 5385 ft | 23 kts | 270° |
| 2026-04-24 20:07 | 39.85660 | -104.67075 | 5385 ft | 43 kts | 270° |
| 2026-04-24 20:07 | 39.85662 | -104.67354 | 5383 ft | 11 kts | 270° |
| 2026-04-24 20:07 | 39.85676 | -104.67434 | 5385 ft | 8 kts | 309° |
| 2026-04-24 20:07 | 39.85724 | -104.67461 | 5383 ft | 6 kts | 355° |
| 2026-04-24 20:08 | 39.85767 | -104.67463 | 5382 ft | 6 kts | 1° |
| 2026-04-24 20:08 | 39.85810 | -104.67462 | 5385 ft | 6 kts | 1° |
| 2026-04-24 20:08 | 39.85815 | -104.67462 | 5385 ft | 0 kts | 1° |